createdAt,value
2023-05-15T00:02:33.820Z,3.47
2023-05-15T00:05:19.690Z,3.23
2023-05-15T00:08:05.595Z,3.20
2023-05-15T00:11:00.946Z,3.43
2023-05-15T00:13:47.444Z,3.67
2023-05-15T00:16:32.660Z,3.10
2023-05-15T00:19:17.919Z,3.23
2023-05-15T00:22:03.354Z,3.13
2023-05-15T00:24:48.661Z,3.10
2023-05-15T00:27:34.098Z,3.30
2023-05-15T00:30:22.043Z,3.40
2023-05-15T00:33:07.882Z,3.33
2023-05-15T00:35:53.186Z,3.50
2023-05-15T00:38:38.468Z,3.30
2023-05-15T00:41:24.721Z,3.00
2023-05-15T00:44:11.537Z,2.90
2023-05-15T00:46:59.288Z,3.00
2023-05-15T00:49:45.036Z,3.33
2023-05-15T00:52:30.293Z,3.03
2023-05-15T00:55:16.608Z,3.07
2023-05-15T00:58:03.899Z,2.93
2023-05-15T01:00:51.163Z,3.00
2023-05-15T01:03:36.756Z,3.10
2023-05-15T01:06:22.262Z,3.03
2023-05-15T01:09:08.380Z,3.70
2023-05-15T01:11:55.176Z,3.20
2023-05-15T01:14:40.763Z,2.40
2023-05-15T01:17:26.290Z,2.90
2023-05-15T01:20:15.564Z,3.07
2023-05-15T01:23:14.266Z,2.80
2023-05-15T01:26:22.037Z,3.63
2023-05-15T01:29:22.632Z,2.93
2023-05-15T01:32:25.212Z,3.13
2023-05-15T01:35:35.901Z,2.80
2023-05-15T01:38:44.836Z,2.90
2023-05-15T01:41:49.545Z,2.60
2023-05-15T01:44:38.451Z,2.87
2023-05-15T01:47:33.445Z,2.30
2023-05-15T01:50:21.410Z,2.87
2023-05-15T01:53:08.738Z,3.10
2023-05-15T01:55:55.100Z,2.70
2023-05-15T01:58:41.461Z,2.53
2023-05-15T02:01:27.957Z,3.00
2023-05-15T02:04:14.429Z,2.70
2023-05-15T02:07:02.863Z,2.80
2023-05-15T02:09:48.302Z,2.70
2023-05-15T02:12:34.925Z,2.60
2023-05-15T02:15:23.699Z,2.60
2023-05-15T02:18:09.476Z,2.43
2023-05-15T02:20:54.973Z,2.77
2023-05-15T02:23:40.982Z,2.67
2023-05-15T02:26:30.896Z,2.50
2023-05-15T02:29:26.238Z,2.63
2023-05-15T02:32:21.469Z,2.80
2023-05-15T02:35:32.610Z,2.80
2023-05-15T02:38:40.979Z,2.93
2023-05-15T02:41:27.269Z,2.67
2023-05-15T02:44:15.098Z,2.80
2023-05-15T02:47:00.810Z,2.70
2023-05-15T02:49:46.740Z,2.60
2023-05-15T02:52:34.367Z,4.63
2023-05-15T02:55:19.801Z,6.67
2023-05-15T02:58:05.383Z,5.13
2023-05-15T03:00:50.871Z,4.50
2023-05-15T03:03:36.352Z,3.80
2023-05-15T03:06:21.771Z,3.80
2023-05-15T03:09:07.295Z,3.10
2023-05-15T03:11:52.641Z,3.20
2023-05-15T03:14:37.869Z,3.40
2023-05-15T03:17:23.070Z,3.53
2023-05-15T03:20:09.071Z,2.90
2023-05-15T03:22:54.706Z,3.37
2023-05-15T03:25:40.085Z,3.20
2023-05-15T03:28:25.682Z,2.97
2023-05-15T03:31:11.409Z,3.10
2023-05-15T03:33:57.081Z,3.50
2023-05-15T03:36:42.383Z,3.60
2023-05-15T03:39:27.620Z,3.70
2023-05-15T03:42:12.924Z,3.53
2023-05-15T03:44:59.422Z,3.30
2023-05-15T03:47:44.730Z,3.40
2023-05-15T03:50:31.294Z,5.80
2023-05-15T03:53:17.929Z,5.30
2023-05-15T03:56:04.040Z,5.17
2023-05-15T03:58:49.490Z,5.50
2023-05-15T04:01:44.086Z,4.83
2023-05-15T04:04:37.631Z,4.73
2023-05-15T04:07:23.255Z,4.33
2023-05-15T04:10:09.122Z,4.27
2023-05-15T04:12:54.400Z,4.83
2023-05-15T04:15:40.798Z,5.10
2023-05-15T04:18:26.414Z,4.60
2023-05-15T04:21:12.068Z,4.50
2023-05-15T04:23:57.283Z,5.03
2023-05-15T04:26:42.550Z,4.47
2023-05-15T04:29:27.875Z,4.33
2023-05-15T04:32:14.811Z,4.20
2023-05-15T04:35:01.421Z,4.13
2023-05-15T04:37:46.946Z,4.63
2023-05-15T04:40:32.377Z,4.13
2023-05-15T04:43:18.077Z,4.53
2023-05-15T04:46:06.256Z,4.40
2023-05-15T04:48:52.281Z,4.87
2023-05-15T04:51:38.007Z,4.37
2023-05-15T04:54:23.573Z,5.63
2023-05-15T04:57:09.319Z,4.40
2023-05-15T04:59:54.665Z,5.23
2023-05-15T05:03:05.147Z,5.50
2023-05-15T05:05:50.367Z,5.20
2023-05-15T05:08:35.794Z,7.40
2023-05-15T05:11:21.637Z,9.00
2023-05-15T05:14:07.921Z,8.50
2023-05-15T05:16:53.660Z,8.90
2023-05-15T05:19:38.884Z,8.43
2023-05-15T05:22:24.267Z,9.00
2023-05-15T05:25:09.773Z,8.43
2023-05-15T05:27:54.779Z,8.60
2023-05-15T05:30:40.088Z,8.17
2023-05-15T05:33:25.290Z,7.80
2023-05-15T05:36:10.883Z,8.07
2023-05-15T05:38:56.361Z,7.70
2023-05-15T05:41:41.721Z,7.50
2023-05-15T05:44:27.163Z,6.63
2023-05-15T05:47:12.420Z,6.63
2023-05-15T05:49:57.666Z,6.23
2023-05-15T05:52:42.798Z,5.80
2023-05-15T05:55:28.232Z,6.97
2023-05-15T05:58:21.676Z,6.53
2023-05-15T06:01:10.632Z,6.30
2023-05-15T06:03:56.333Z,6.13
2023-05-15T06:06:42.257Z,6.13
2023-05-15T06:09:27.949Z,5.43
2023-05-15T06:12:13.316Z,5.63
2023-05-15T06:14:58.752Z,6.03
2023-05-15T06:17:43.975Z,5.50
2023-05-15T06:20:29.205Z,5.83
2023-05-15T06:23:14.547Z,5.40
2023-05-15T06:26:01.695Z,5.93
2023-05-15T06:28:47.483Z,5.07
2023-05-15T06:31:32.860Z,4.80
2023-05-15T06:34:18.403Z,5.63
2023-05-15T06:37:03.926Z,4.90
2023-05-15T06:39:49.041Z,5.70
2023-05-15T06:42:34.436Z,5.47
2023-05-15T06:45:20.098Z,5.80
2023-05-15T06:48:05.579Z,4.83
2023-05-15T06:50:51.532Z,4.90
2023-05-15T06:53:37.079Z,4.90
2023-05-15T06:56:22.789Z,4.90
2023-05-15T06:59:09.376Z,4.57
2023-05-15T07:01:55.920Z,4.67
2023-05-15T07:04:41.574Z,5.00
2023-05-15T07:07:26.821Z,4.90
2023-05-15T07:10:12.291Z,4.77
2023-05-15T07:12:57.381Z,4.30
2023-05-15T07:15:42.629Z,4.73
2023-05-15T07:18:27.926Z,4.90
2023-05-15T07:21:13.308Z,4.60
2023-05-15T07:23:58.815Z,4.70
2023-05-15T07:26:57.641Z,4.87
2023-05-15T07:29:44.096Z,4.50
2023-05-15T07:32:29.394Z,4.70
2023-05-15T07:35:14.650Z,4.37
2023-05-15T07:38:00.084Z,4.40
2023-05-15T07:40:45.390Z,4.30
2023-05-15T07:43:30.894Z,4.67
2023-05-15T07:46:16.045Z,4.43
2023-05-15T07:49:01.457Z,4.10
2023-05-15T07:51:46.710Z,4.47
2023-05-15T07:54:32.206Z,3.83
2023-05-15T07:57:18.070Z,4.70
2023-05-15T08:00:10.906Z,4.20
2023-05-15T08:03:00.054Z,4.50
2023-05-15T08:05:45.738Z,4.10
2023-05-15T08:08:31.285Z,4.40
2023-05-15T08:11:16.584Z,4.20
2023-05-15T08:14:01.942Z,4.30
2023-05-15T08:16:51.391Z,4.40
2023-05-15T08:19:36.531Z,3.90
2023-05-15T08:22:21.918Z,4.00
2023-05-15T08:25:08.815Z,3.90
2023-05-15T08:27:53.921Z,3.67
2023-05-15T08:30:39.232Z,3.97
2023-05-15T08:33:24.543Z,4.00
2023-05-15T08:36:09.950Z,3.67
2023-05-15T08:38:55.218Z,3.53
2023-05-15T08:42:28.322Z,4.20
2023-05-15T08:45:14.565Z,3.60
2023-05-15T08:48:02.142Z,4.00
2023-05-15T08:50:49.633Z,4.20
2023-05-15T08:53:35.747Z,3.90
2023-05-15T08:56:21.968Z,3.67
2023-05-15T08:59:07.736Z,3.97
2023-05-15T09:01:53.917Z,3.70
2023-05-15T09:04:39.286Z,3.60
2023-05-15T09:07:25.603Z,3.60
2023-05-15T09:10:13.122Z,4.10
2023-05-15T09:13:01.853Z,3.43
2023-05-15T09:15:50.771Z,4.20
2023-05-15T09:18:39.109Z,3.80
2023-05-15T09:21:26.881Z,3.90
2023-05-15T09:24:19.866Z,3.93
2023-05-15T09:27:07.819Z,3.10
2023-05-15T09:29:56.346Z,3.60
2023-05-15T09:32:41.919Z,3.43
2023-05-15T09:35:47.874Z,3.73
2023-05-15T09:38:48.070Z,3.50
2023-05-15T09:41:34.181Z,3.17
2023-05-15T09:44:26.575Z,3.67
2023-05-15T09:47:16.870Z,3.15
2023-05-15T09:50:02.448Z,3.30
2023-05-15T09:52:47.774Z,3.80
2023-05-15T09:55:35.074Z,3.80
2023-05-15T09:58:20.825Z,3.57
2023-05-15T10:01:11.693Z,3.80
2023-05-15T10:04:01.771Z,3.43
2023-05-15T10:06:48.452Z,3.33
2023-05-15T10:09:33.915Z,3.47
2023-05-15T10:12:19.213Z,3.63
2023-05-15T10:15:05.684Z,3.50
2023-05-15T10:17:52.438Z,3.70
2023-05-15T10:20:37.689Z,2.97
2023-05-15T10:23:23.761Z,3.03
2023-05-15T10:26:21.599Z,3.13
2023-05-15T10:29:13.149Z,3.23
2023-05-15T10:32:01.070Z,3.60
2023-05-15T10:34:46.938Z,3.27
2023-05-15T10:37:34.229Z,3.40
2023-05-15T10:40:20.321Z,3.40
2023-05-15T10:43:06.633Z,3.27
2023-05-15T10:45:53.364Z,3.50
2023-05-15T10:48:39.551Z,3.33
2023-05-15T10:51:28.920Z,3.43
2023-05-15T10:54:15.107Z,3.10
2023-05-15T10:57:00.770Z,3.40
2023-05-15T10:59:46.069Z,3.23
2023-05-15T11:02:38.542Z,3.17
2023-05-15T11:05:24.793Z,3.47
2023-05-15T11:08:17.872Z,3.07
2023-05-15T11:11:03.257Z,3.08
2023-05-15T11:14:08.048Z,2.73
2023-05-15T11:16:53.680Z,3.10
2023-05-15T11:19:51.505Z,3.47
2023-05-15T11:22:37.580Z,3.20
2023-05-15T11:25:30.035Z,3.00
2023-05-15T11:28:23.546Z,3.00
2023-05-15T11:33:54.432Z,3.13
2023-05-15T11:36:39.918Z,3.30
2023-05-15T11:39:26.119Z,2.73
2023-05-15T11:42:12.497Z,3.07
2023-05-15T11:44:58.188Z,3.20
2023-05-15T11:47:45.433Z,2.90
2023-05-15T11:50:33.081Z,3.40
2023-05-15T11:53:19.631Z,3.03
2023-05-15T11:56:05.295Z,2.80
2023-05-15T11:58:51.986Z,3.10
2023-05-15T12:01:47.344Z,3.07
2023-05-15T12:04:34.457Z,2.97
2023-05-15T12:07:19.986Z,3.20
2023-05-15T12:10:06.440Z,3.00
2023-05-15T12:12:51.813Z,3.27
2023-05-15T12:15:42.802Z,3.20
2023-05-15T12:18:28.263Z,2.67
2023-05-15T12:21:14.039Z,3.30
2023-05-15T12:24:07.851Z,3.17
2023-05-15T12:26:55.400Z,2.80
2023-05-15T12:29:43.486Z,2.60
2023-05-15T12:32:32.376Z,3.13
2023-05-15T12:35:19.231Z,2.80
2023-05-15T12:38:05.859Z,3.20
2023-05-15T12:40:54.447Z,2.90
2023-05-15T12:43:41.649Z,2.80
2023-05-15T12:46:31.865Z,2.80
2023-05-15T12:49:22.823Z,3.07
2023-05-15T12:52:15.862Z,2.97
2023-05-15T12:55:01.830Z,2.77
2023-05-15T12:57:47.445Z,3.00
2023-05-15T13:00:36.238Z,2.70
2023-05-15T13:03:25.142Z,3.00
2023-05-15T13:06:11.205Z,2.60
2023-05-15T13:08:56.916Z,2.90
2023-05-15T13:11:45.549Z,2.43
2023-05-15T13:14:34.629Z,2.93
2023-05-15T13:17:21.992Z,2.70
2023-05-15T13:20:08.797Z,2.47
2023-05-15T13:22:54.215Z,2.77
2023-05-15T13:25:39.604Z,2.80
2023-05-15T13:28:24.747Z,2.83
2023-05-15T13:31:10.078Z,2.53
2023-05-15T13:33:55.809Z,2.70
2023-05-15T13:36:41.167Z,2.47
2023-05-15T13:39:26.580Z,2.90
2023-05-15T13:42:12.435Z,3.60
2023-05-15T13:44:58.412Z,3.53
2023-05-15T13:47:44.757Z,3.40
2023-05-15T13:50:29.971Z,4.10
2023-05-15T13:53:17.060Z,4.10
2023-05-15T13:56:03.521Z,3.80
2023-05-15T13:58:48.944Z,4.37
2023-05-15T14:02:00.041Z,3.57
2023-05-15T14:04:47.273Z,4.10
2023-05-15T14:07:33.078Z,4.83
2023-05-15T14:10:18.444Z,3.67
2023-05-15T14:13:03.858Z,4.27
2023-05-15T14:15:49.187Z,4.17
2023-05-15T14:18:34.727Z,5.10
2023-05-15T14:21:20.223Z,4.53
2023-05-15T14:24:06.480Z,4.40
2023-05-15T14:26:51.956Z,4.57
2023-05-15T14:29:37.203Z,5.43
2023-05-15T14:32:23.753Z,4.70
2023-05-15T14:35:09.733Z,4.53
2023-05-15T14:37:54.969Z,4.50
2023-05-15T14:40:40.238Z,4.30
2023-05-15T14:43:25.604Z,4.50
2023-05-15T14:46:11.492Z,4.13
2023-05-15T14:48:57.020Z,3.87
2023-05-15T14:51:42.703Z,4.37
2023-05-15T14:54:28.811Z,4.70
2023-05-15T14:57:16.360Z,4.20
2023-05-15T15:00:02.142Z,4.10
2023-05-15T15:02:48.774Z,4.73
2023-05-15T15:05:34.303Z,4.67
2023-05-15T15:08:20.194Z,4.53
2023-05-15T15:11:06.492Z,4.23
2023-05-15T15:13:51.737Z,4.67
2023-05-15T15:17:04.576Z,4.67
2023-05-15T15:19:52.977Z,4.32
2023-05-15T15:22:39.967Z,4.30
2023-05-15T15:25:25.777Z,5.30
2023-05-15T15:28:11.068Z,5.20
2023-05-15T15:30:56.387Z,5.33
2023-05-15T15:33:41.518Z,4.83
2023-05-15T15:36:27.067Z,4.93
2023-05-15T15:39:13.179Z,5.40
2023-05-15T15:41:59.172Z,5.67
2023-05-15T15:44:44.603Z,5.93
2023-05-15T15:47:30.980Z,6.70
2023-05-15T15:50:17.134Z,6.67
2023-05-15T15:53:02.535Z,5.67
2023-05-15T15:55:47.920Z,6.30
2023-05-15T15:58:33.524Z,6.43
2023-05-15T16:01:19.112Z,7.73
2023-05-15T16:04:04.486Z,7.83
2023-05-15T16:06:50.042Z,7.90
2023-05-15T16:09:35.381Z,8.00
2023-05-15T16:12:23.373Z,7.27
2023-05-15T16:15:21.795Z,7.70
2023-05-15T16:18:09.022Z,6.97
2023-05-15T16:20:54.400Z,7.90
2023-05-15T16:23:41.315Z,7.27
2023-05-15T16:26:26.797Z,7.40
2023-05-15T16:29:12.503Z,6.93
2023-05-15T16:31:58.530Z,6.97
2023-05-15T16:34:44.292Z,6.93
2023-05-15T16:37:29.613Z,6.87
2023-05-15T16:40:15.389Z,6.30
2023-05-15T16:43:01.055Z,6.03
2023-05-15T16:45:46.399Z,6.20
2023-05-15T16:48:31.674Z,6.20
2023-05-15T16:51:17.574Z,6.20
2023-05-15T16:54:02.766Z,5.93
2023-05-15T16:56:48.201Z,5.67
2023-05-15T16:59:33.928Z,5.50
2023-05-15T17:02:19.613Z,5.73
2023-05-15T17:05:07.775Z,5.60
2023-05-15T17:07:52.996Z,5.67
2023-05-15T17:10:38.480Z,5.23
2023-05-15T17:13:25.456Z,4.83
2023-05-15T17:16:11.614Z,5.23
2023-05-15T17:18:56.981Z,5.00
2023-05-15T17:21:42.224Z,4.80
2023-05-15T17:24:35.571Z,4.90
2023-05-15T17:27:27.977Z,4.83
2023-05-15T17:30:13.542Z,4.80
2023-05-15T17:33:00.373Z,4.63
2023-05-15T17:35:46.403Z,4.83
2023-05-15T17:38:31.898Z,5.27
2023-05-15T17:41:17.141Z,5.07
2023-05-15T17:44:02.938Z,4.40
2023-05-15T17:46:48.209Z,4.50
2023-05-15T17:49:34.549Z,4.57
2023-05-15T17:52:20.062Z,4.20
2023-05-15T17:55:06.221Z,4.43
2023-05-15T17:57:52.301Z,4.60
2023-05-15T18:00:39.916Z,4.30
2023-05-15T18:03:26.090Z,4.60
2023-05-15T18:06:37.062Z,4.53
2023-05-15T18:09:24.252Z,4.67
2023-05-15T18:12:35.422Z,5.07
2023-05-15T18:15:20.717Z,4.27
2023-05-15T18:18:06.738Z,4.33
2023-05-15T18:25:39.554Z,4.80
2023-05-15T18:28:25.044Z,4.30
2023-05-15T18:31:10.856Z,4.20
2023-05-15T18:34:22.260Z,4.67
2023-05-15T18:37:08.205Z,5.30
2023-05-15T18:39:57.019Z,4.53
2023-05-15T18:42:42.505Z,4.97
2023-05-15T18:45:28.128Z,4.63
2023-05-15T18:48:41.402Z,4.57
2023-05-15T18:54:12.877Z,4.27
2023-05-15T18:56:58.314Z,4.40
2023-05-15T18:59:44.509Z,4.70
2023-05-15T19:02:32.725Z,4.80
2023-05-15T19:05:18.415Z,4.60
2023-05-15T19:08:04.457Z,4.70
2023-05-15T19:10:51.038Z,4.33
2023-05-15T19:13:36.458Z,4.30
2023-05-15T19:16:21.892Z,5.00
2023-05-15T19:19:07.128Z,4.53
2023-05-15T19:21:53.146Z,5.13
2023-05-15T19:24:38.778Z,4.93
2023-05-15T19:27:24.000Z,4.50
2023-05-15T19:30:10.085Z,4.90
2023-05-15T19:32:55.745Z,4.70
2023-05-15T19:35:41.431Z,5.17
2023-05-15T19:38:26.981Z,4.17
2023-05-15T19:41:13.953Z,4.23
2023-05-15T19:44:01.028Z,4.80
2023-05-15T19:46:46.907Z,4.53
2023-05-15T19:49:32.400Z,4.23
2023-05-15T19:52:19.359Z,5.03
2023-05-15T19:55:04.989Z,5.40
2023-05-15T19:57:55.628Z,5.33
2023-05-15T20:00:41.605Z,4.63
2023-05-15T20:03:32.839Z,4.87
2023-05-15T20:06:18.454Z,5.20
2023-05-15T20:09:04.653Z,5.10
2023-05-15T20:11:50.412Z,4.67
2023-05-15T20:14:35.759Z,4.70
2023-05-15T20:17:21.240Z,5.33
2023-05-15T20:20:16.631Z,4.63
2023-05-15T20:23:02.143Z,4.77
2023-05-15T20:25:51.341Z,4.70
2023-05-15T20:28:36.654Z,4.50
2023-05-15T20:31:22.086Z,4.77
2023-05-15T20:34:08.345Z,4.53
2023-05-15T20:36:54.513Z,4.83
2023-05-15T20:39:39.867Z,4.73
2023-05-15T20:42:27.827Z,4.07
2023-05-15T20:45:13.985Z,4.50
2023-05-15T20:47:59.538Z,4.40
2023-05-15T20:50:44.827Z,4.20
2023-05-15T20:53:30.352Z,4.30
2023-05-15T20:56:15.801Z,4.63
2023-05-15T20:59:01.160Z,4.57
2023-05-15T21:01:46.250Z,4.40
2023-05-15T21:04:31.631Z,4.47
2023-05-15T21:07:16.893Z,4.33
2023-05-15T21:10:02.436Z,4.23
2023-05-15T21:12:48.248Z,4.33
2023-05-15T21:15:33.566Z,4.33
2023-05-15T21:18:19.105Z,4.33
2023-05-15T21:21:07.115Z,4.63
2023-05-15T21:23:52.248Z,4.40
2023-05-15T21:26:37.537Z,4.07
2023-05-15T21:29:22.950Z,4.33
2023-05-15T21:32:08.545Z,4.40
2023-05-15T21:34:53.915Z,4.50
2023-05-15T21:37:39.472Z,4.40
2023-05-15T21:40:25.181Z,4.57
2023-05-15T21:43:10.802Z,4.57
2023-05-15T21:45:56.751Z,4.60
2023-05-15T21:48:42.495Z,4.33
2023-05-15T21:51:27.842Z,4.40
2023-05-15T21:54:13.184Z,4.40
2023-05-15T21:56:58.599Z,4.57
2023-05-15T21:59:43.916Z,4.07
2023-05-15T22:02:29.230Z,4.40
2023-05-15T22:05:15.389Z,4.70
2023-05-15T22:08:01.208Z,4.53
2023-05-15T22:10:46.234Z,4.23
2023-05-15T22:13:31.526Z,4.77
2023-05-15T22:16:17.040Z,4.43
2023-05-15T22:19:03.054Z,4.30
2023-05-15T22:21:48.360Z,4.70
2023-05-15T22:24:33.673Z,4.27
2023-05-15T22:27:19.052Z,4.33
2023-05-15T22:30:05.095Z,4.50
2023-05-15T22:32:51.437Z,4.57
2023-05-15T22:35:37.253Z,4.50
2023-05-15T22:38:22.460Z,4.90
2023-05-15T22:41:08.869Z,5.00
2023-05-15T22:43:54.679Z,4.50
2023-05-15T22:46:40.306Z,4.27
2023-05-15T22:49:26.477Z,4.70
2023-05-15T22:52:13.646Z,4.37
2023-05-15T22:54:59.578Z,4.43
2023-05-15T22:57:45.045Z,4.67
2023-05-15T23:00:30.896Z,4.70
2023-05-15T23:03:16.808Z,4.40
2023-05-15T23:06:02.178Z,4.30
2023-05-15T23:08:47.480Z,4.30
2023-05-15T23:11:32.665Z,4.50
2023-05-15T23:14:17.936Z,4.37
2023-05-15T23:17:03.921Z,4.53
2023-05-15T23:19:49.012Z,4.47
2023-05-15T23:22:34.324Z,4.30
2023-05-15T23:25:19.951Z,4.50
2023-05-15T23:28:05.562Z,4.27
2023-05-15T23:30:54.985Z,4.43
2023-05-15T23:33:40.762Z,4.20
2023-05-15T23:36:25.932Z,4.53
2023-05-15T23:39:11.804Z,4.80
2023-05-15T23:41:57.264Z,4.90
2023-05-15T23:44:43.004Z,4.50
2023-05-15T23:47:28.399Z,4.47
2023-05-15T23:50:13.737Z,4.40
2023-05-15T23:52:59.078Z,4.60
2023-05-15T23:55:44.278Z,4.33
2023-05-15T23:58:29.605Z,5.03
